createdAt,value
2018-09-23T00:00:25.209Z,11.50
2018-09-23T00:02:53.620Z,11.50
2018-09-23T00:05:22.059Z,11.50
2018-09-23T00:07:50.485Z,11.50
2018-09-23T00:10:18.934Z,11.50
2018-09-23T00:12:47.352Z,11.50
2018-09-23T00:15:15.760Z,11.50
2018-09-23T00:17:44.172Z,11.50
2018-09-23T00:20:12.588Z,11.60
2018-09-23T00:22:41.012Z,11.50
2018-09-23T00:25:09.436Z,11.60
2018-09-23T00:27:37.864Z,11.50
2018-09-23T00:30:06.489Z,11.50
2018-09-23T00:32:34.949Z,11.60
2018-09-23T00:35:03.396Z,11.60
2018-09-23T00:37:31.824Z,11.50
2018-09-23T00:40:00.236Z,11.40
2018-09-23T00:42:28.660Z,11.50
2018-09-23T00:44:57.082Z,11.40
2018-09-23T00:47:25.519Z,11.40
2018-09-23T00:49:53.944Z,11.40
2018-09-23T00:52:22.380Z,11.40
2018-09-23T00:54:50.776Z,11.40
2018-09-23T00:57:19.192Z,11.50
2018-09-23T00:59:47.593Z,11.40
2018-09-23T01:02:16.044Z,11.30
2018-09-23T01:04:44.460Z,11.30
2018-09-23T01:07:12.904Z,11.20
2018-09-23T01:09:41.304Z,11.10
2018-09-23T01:12:09.768Z,11.10
2018-09-23T01:14:38.244Z,11.10
2018-09-23T01:17:06.688Z,11.10
2018-09-23T01:19:35.115Z,11.10
2018-09-23T01:22:03.528Z,11.00
2018-09-23T01:24:31.947Z,11.00
2018-09-23T01:27:00.365Z,11.00
2018-09-23T01:29:28.784Z,10.90
2018-09-23T01:31:57.249Z,10.90
2018-09-23T01:34:25.697Z,10.80
2018-09-23T01:36:54.152Z,10.80
2018-09-23T01:39:22.652Z,10.80
2018-09-23T01:41:51.048Z,10.80
2018-09-23T01:44:19.492Z,10.80
2018-09-23T01:46:47.921Z,10.70
2018-09-23T01:49:16.371Z,10.70
2018-09-23T01:51:44.804Z,10.70
2018-09-23T01:54:13.256Z,10.70
2018-09-23T01:56:41.669Z,10.60
2018-09-23T01:59:10.145Z,10.70
2018-09-23T02:01:38.572Z,10.60
2018-09-23T02:04:07.008Z,10.70
2018-09-23T02:06:35.432Z,10.70
2018-09-23T02:09:04.643Z,10.70
2018-09-23T02:11:33.084Z,10.70
2018-09-23T02:14:01.500Z,10.60
2018-09-23T02:16:30.048Z,10.60
2018-09-23T02:18:58.453Z,10.50
2018-09-23T02:21:27.040Z,10.60
2018-09-23T02:23:55.444Z,10.50
2018-09-23T02:26:23.902Z,10.60
2018-09-23T02:28:52.312Z,10.60
2018-09-23T02:31:20.745Z,10.60
2018-09-23T02:33:49.152Z,10.60
2018-09-23T02:36:17.579Z,10.60
2018-09-23T02:38:46.002Z,10.60
2018-09-23T02:41:14.459Z,10.60
2018-09-23T02:43:42.877Z,10.50
2018-09-23T02:46:11.359Z,10.60
2018-09-23T02:48:39.813Z,10.60
2018-09-23T02:51:08.255Z,10.60
2018-09-23T02:53:36.663Z,10.60
2018-09-23T02:56:05.106Z,10.50
2018-09-23T02:58:33.519Z,10.50
2018-09-23T03:01:01.941Z,10.60
2018-09-23T03:03:30.367Z,10.60
2018-09-23T03:05:58.824Z,10.50
2018-09-23T03:08:27.223Z,10.50
2018-09-23T03:10:55.604Z,10.50
2018-09-23T03:13:24.003Z,10.50
2018-09-23T03:15:52.420Z,10.50
2018-09-23T03:18:20.844Z,10.60
2018-09-23T03:20:49.252Z,10.60
2018-09-23T03:23:17.652Z,10.60
2018-09-23T03:25:46.060Z,10.60
2018-09-23T03:28:14.466Z,10.50
2018-09-23T03:30:42.875Z,10.60
2018-09-23T03:33:11.275Z,10.50
2018-09-23T03:35:39.672Z,10.60
2018-09-23T03:38:08.180Z,10.60
2018-09-23T03:40:36.951Z,10.50
2018-09-23T03:43:05.686Z,10.50
2018-09-23T03:45:34.104Z,10.60
2018-09-23T03:48:02.654Z,10.50
2018-09-23T03:50:31.083Z,10.50
2018-09-23T03:52:59.543Z,10.50
2018-09-23T03:55:28.445Z,10.50
2018-09-23T03:57:56.863Z,10.50
2018-09-23T04:00:25.291Z,10.50
2018-09-23T04:02:53.715Z,10.50
2018-09-23T04:05:22.140Z,10.50
2018-09-23T04:07:50.541Z,10.50
2018-09-23T04:10:18.947Z,10.40
2018-09-23T04:12:47.328Z,10.50
2018-09-23T04:15:15.802Z,10.50
2018-09-23T04:17:44.215Z,10.50
2018-09-23T04:20:12.629Z,10.40
2018-09-23T04:22:48.491Z,10.40
2018-09-23T04:25:17.194Z,10.40
2018-09-23T04:27:45.863Z,10.40
2018-09-23T04:30:14.303Z,10.40
2018-09-23T04:32:42.704Z,10.50
2018-09-23T04:35:11.453Z,10.50
2018-09-23T04:37:39.847Z,10.50
2018-09-23T04:40:08.321Z,10.50
2018-09-23T04:42:36.786Z,10.50
2018-09-23T04:45:05.305Z,10.40
2018-09-23T04:47:33.695Z,10.40
2018-09-23T04:50:02.100Z,10.40
2018-09-23T04:52:30.529Z,10.40
2018-09-23T04:54:58.919Z,10.40
2018-09-23T04:57:27.323Z,10.50
2018-09-23T04:59:55.728Z,10.50
2018-09-23T05:02:24.204Z,10.50
2018-09-23T05:04:52.647Z,10.50
2018-09-23T05:07:21.152Z,10.50
2018-09-23T05:09:49.780Z,10.50
2018-09-23T05:12:18.197Z,10.50
2018-09-23T05:14:46.596Z,10.50
2018-09-23T05:17:15.024Z,10.50
2018-09-23T05:19:43.427Z,10.60
2018-09-23T05:22:11.892Z,10.60
2018-09-23T05:24:40.321Z,10.60
2018-09-23T05:27:08.719Z,10.60
2018-09-23T05:29:37.109Z,10.70
2018-09-23T05:32:05.535Z,10.70
2018-09-23T05:34:33.912Z,10.70
2018-09-23T05:37:02.335Z,10.80
2018-09-23T05:39:30.744Z,10.80
2018-09-23T05:41:59.203Z,10.80
2018-09-23T05:44:27.607Z,10.80
2018-09-23T05:46:56.000Z,10.80
2018-09-23T05:49:24.436Z,10.90
2018-09-23T05:51:52.861Z,10.90
2018-09-23T05:54:21.273Z,10.90
2018-09-23T05:56:49.668Z,10.90
2018-09-23T05:59:18.076Z,10.90
2018-09-23T06:01:46.485Z,10.90
2018-09-23T06:04:14.900Z,10.90
2018-09-23T06:06:43.316Z,11.00
2018-09-23T06:09:11.772Z,11.00
2018-09-23T06:11:40.175Z,11.10
2018-09-23T06:14:08.620Z,11.20
2018-09-23T06:16:37.008Z,11.30
2018-09-23T06:19:05.427Z,11.30
2018-09-23T06:21:33.859Z,11.30
2018-09-23T06:24:02.332Z,11.30
2018-09-23T06:26:30.750Z,11.40
2018-09-23T06:28:59.156Z,11.40
2018-09-23T06:31:27.567Z,11.40
2018-09-23T06:33:55.968Z,11.50
2018-09-23T06:36:24.397Z,11.50
2018-09-23T06:38:52.929Z,11.50
2018-09-23T06:41:21.375Z,11.50
2018-09-23T06:43:49.813Z,11.50
2018-09-23T06:46:18.264Z,11.50
2018-09-23T06:48:46.651Z,11.50
2018-09-23T06:51:15.313Z,11.60
2018-09-23T06:53:43.851Z,11.60
2018-09-23T06:56:12.263Z,11.60
2018-09-23T06:58:40.740Z,11.60
2018-09-23T07:01:09.185Z,11.70
2018-09-23T07:03:37.608Z,11.70
2018-09-23T07:06:06.063Z,11.80
2018-09-23T07:08:34.465Z,11.90
2018-09-23T07:11:02.916Z,11.90
2018-09-23T07:13:31.320Z,12.00
2018-09-23T07:15:59.745Z,12.00
2018-09-23T07:18:28.160Z,12.10
2018-09-23T07:20:56.584Z,12.10
2018-09-23T07:23:24.998Z,12.20
2018-09-23T07:25:53.453Z,12.20
2018-09-23T07:28:22.300Z,12.20
2018-09-23T07:30:50.796Z,12.30
2018-09-23T07:33:19.261Z,12.40
2018-09-23T07:35:47.721Z,12.40
2018-09-23T07:38:16.156Z,12.40
2018-09-23T07:40:44.612Z,12.50
2018-09-23T07:43:13.040Z,12.50
2018-09-23T07:45:41.528Z,12.50
2018-09-23T07:48:10.047Z,12.40
2018-09-23T07:50:38.637Z,12.50
2018-09-23T07:53:07.043Z,12.60
2018-09-23T07:55:35.430Z,12.60
2018-09-23T07:58:03.857Z,12.70
2018-09-23T08:00:32.240Z,12.70
2018-09-23T08:03:00.671Z,12.80
2018-09-23T08:05:29.048Z,12.80
2018-09-23T08:07:57.636Z,12.90
2018-09-23T08:10:26.090Z,12.90
2018-09-23T08:12:54.737Z,12.80
2018-09-23T08:15:23.012Z,12.90
2018-09-23T08:17:51.443Z,12.90
2018-09-23T08:20:19.920Z,12.90
2018-09-23T08:22:48.282Z,13.00
2018-09-23T08:25:16.708Z,13.00
2018-09-23T08:27:45.113Z,13.00
2018-09-23T08:30:13.520Z,13.10
2018-09-23T08:32:42.009Z,13.10
2018-09-23T08:35:10.427Z,13.20
2018-09-23T08:37:38.840Z,13.30
2018-09-23T08:40:07.291Z,13.30
2018-09-23T08:42:35.673Z,13.40
2018-09-23T08:45:04.165Z,13.40
2018-09-23T08:47:32.584Z,13.40
2018-09-23T08:50:00.983Z,13.40
2018-09-23T08:52:29.417Z,13.30
2018-09-23T08:54:57.953Z,13.30
2018-09-23T08:57:26.409Z,13.30
2018-09-23T08:59:54.848Z,13.40
2018-09-23T09:02:23.288Z,13.40
2018-09-23T09:04:51.712Z,13.40
2018-09-23T09:07:20.108Z,13.50
2018-09-23T09:09:48.532Z,13.40
2018-09-23T09:12:16.935Z,13.50
2018-09-23T09:14:45.355Z,13.50
2018-09-23T09:17:13.824Z,13.50
2018-09-23T09:19:42.336Z,13.50
2018-09-23T09:22:10.767Z,13.60
2018-09-23T09:24:39.223Z,13.60
2018-09-23T09:27:07.648Z,13.70
2018-09-23T09:29:36.100Z,13.70
2018-09-23T09:32:04.507Z,13.70
2018-09-23T09:34:32.932Z,13.80
2018-09-23T09:37:01.344Z,13.80
2018-09-23T09:39:30.191Z,13.80
2018-09-23T09:41:58.600Z,13.90
2018-09-23T09:44:27.060Z,13.90
2018-09-23T09:46:55.461Z,14.00
2018-09-23T09:49:23.917Z,13.90
2018-09-23T09:51:52.313Z,13.90
2018-09-23T09:54:21.371Z,13.90
2018-09-23T09:56:49.808Z,13.90
2018-09-23T09:59:18.224Z,13.80
2018-09-23T10:01:46.652Z,13.90
2018-09-23T10:04:15.113Z,13.90
2018-09-23T10:06:43.504Z,13.90
2018-09-23T10:09:12.141Z,13.90
2018-09-23T10:11:41.134Z,13.90
2018-09-23T10:14:09.476Z,13.90
2018-09-23T10:16:37.916Z,13.90
2018-09-23T10:19:06.373Z,13.90
2018-09-23T10:21:34.825Z,13.90
2018-09-23T10:24:03.301Z,13.90
2018-09-23T10:26:31.790Z,13.90
2018-09-23T10:29:00.215Z,13.90
2018-09-23T10:31:28.739Z,13.90
2018-09-23T10:33:57.158Z,13.80
2018-09-23T10:36:25.637Z,13.80
2018-09-23T10:38:54.063Z,13.90
2018-09-23T10:41:22.497Z,13.90
2018-09-23T10:43:50.915Z,13.90
2018-09-23T10:46:19.335Z,14.00
2018-09-23T10:48:47.713Z,14.00
2018-09-23T10:51:16.124Z,14.10
2018-09-23T10:53:44.544Z,14.20
2018-09-23T10:56:12.957Z,14.20
2018-09-23T10:58:41.367Z,14.20
2018-09-23T11:01:09.776Z,14.20
2018-09-23T11:03:38.275Z,14.30
2018-09-23T11:06:06.685Z,14.30
2018-09-23T11:08:35.119Z,14.40
2018-09-23T11:11:03.556Z,14.30
2018-09-23T11:13:32.013Z,14.30
2018-09-23T11:16:00.423Z,14.20
2018-09-23T11:18:28.853Z,14.20
2018-09-23T11:20:57.340Z,14.20
2018-09-23T11:23:26.016Z,14.20
2018-09-23T11:25:54.381Z,14.20
2018-09-23T11:28:22.815Z,14.20
2018-09-23T11:30:51.268Z,14.20
2018-09-23T11:33:19.672Z,14.20
2018-09-23T11:35:48.432Z,14.20
2018-09-23T11:38:17.037Z,14.20
2018-09-23T11:40:45.480Z,14.20
2018-09-23T11:43:13.913Z,14.20
2018-09-23T11:45:42.367Z,14.30
2018-09-23T11:48:10.812Z,14.30
2018-09-23T11:50:39.218Z,14.30
2018-09-23T11:53:07.684Z,14.30
2018-09-23T11:55:36.160Z,14.30
2018-09-23T11:58:04.596Z,14.40
2018-09-23T12:00:33.040Z,14.30
2018-09-23T12:03:01.504Z,14.40
2018-09-23T12:05:29.920Z,14.40
2018-09-23T12:07:58.360Z,14.50
2018-09-23T12:10:26.824Z,14.60
2018-09-23T12:12:55.205Z,14.60
2018-09-23T12:15:23.648Z,14.60
2018-09-23T12:17:52.055Z,14.60
2018-09-23T12:20:20.495Z,14.70
2018-09-23T12:22:48.909Z,14.70
2018-09-23T12:25:17.371Z,14.80
2018-09-23T12:27:46.085Z,14.80
2018-09-23T12:30:14.532Z,14.80
2018-09-23T12:32:42.937Z,14.90
2018-09-23T12:35:11.385Z,14.90
2018-09-23T12:37:39.796Z,14.90
2018-09-23T12:40:08.269Z,14.90
2018-09-23T12:42:36.677Z,14.90
2018-09-23T12:45:05.329Z,14.90
2018-09-23T12:47:33.756Z,14.90
2018-09-23T12:50:02.230Z,14.90
2018-09-23T12:52:30.712Z,15.00
2018-09-23T12:54:59.137Z,15.00
2018-09-23T12:57:27.624Z,15.20
2018-09-23T12:59:56.039Z,15.40
2018-09-23T13:02:24.502Z,15.60
2018-09-23T13:04:52.946Z,16.00
2018-09-23T13:07:21.352Z,16.30
2018-09-23T13:09:49.760Z,16.60
2018-09-23T13:12:18.182Z,16.80
2018-09-23T13:14:46.585Z,17.00
2018-09-23T13:17:15.004Z,17.20
2018-09-23T13:19:43.406Z,17.40
2018-09-23T13:22:11.866Z,17.50
2018-09-23T13:24:40.287Z,17.60
2018-09-23T13:27:08.688Z,17.70
2018-09-23T13:29:37.085Z,17.70
2018-09-23T13:32:05.501Z,17.80
2018-09-23T13:34:33.891Z,17.80
2018-09-23T13:37:02.372Z,17.80
2018-09-23T13:39:30.768Z,17.90
2018-09-23T13:41:59.215Z,18.00
2018-09-23T13:44:27.611Z,18.10
2018-09-23T13:46:56.020Z,18.20
2018-09-23T13:49:24.452Z,18.20
2018-09-23T13:51:52.848Z,18.30
2018-09-23T13:54:21.340Z,18.30
2018-09-23T13:56:49.713Z,18.30
2018-09-23T13:59:18.142Z,18.40
2018-09-23T14:01:46.572Z,18.50
2018-09-23T14:04:15.007Z,18.60
2018-09-23T14:06:43.445Z,18.60
2018-09-23T14:09:11.880Z,18.70
2018-09-23T14:11:40.277Z,18.70
2018-09-23T14:14:08.717Z,18.60
2018-09-23T14:16:37.137Z,18.60
2018-09-23T14:19:05.965Z,18.60
2018-09-23T14:21:34.388Z,18.70
2018-09-23T14:24:02.827Z,18.80
2018-09-23T14:26:31.244Z,18.80
2018-09-23T14:28:59.669Z,18.80
2018-09-23T14:31:28.100Z,18.80
2018-09-23T14:33:56.562Z,18.90
2018-09-23T14:36:24.956Z,18.90
2018-09-23T14:38:53.392Z,18.90
2018-09-23T14:41:21.826Z,18.90
2018-09-23T14:43:50.248Z,18.90
2018-09-23T14:46:18.668Z,19.00
2018-09-23T14:48:47.162Z,19.00
2018-09-23T14:51:15.569Z,19.00
2018-09-23T14:53:44.007Z,19.00
2018-09-23T14:56:12.505Z,18.90
2018-09-23T14:58:40.881Z,18.90
2018-09-23T15:01:09.597Z,18.70
2018-09-23T15:03:38.056Z,18.60
2018-09-23T15:06:06.540Z,18.50
2018-09-23T15:08:35.073Z,18.40
2018-09-23T15:11:03.539Z,18.40
2018-09-23T15:13:32.012Z,18.30
2018-09-23T15:16:00.519Z,18.20
2018-09-23T15:18:28.959Z,18.10
2018-09-23T15:20:57.413Z,17.20
2018-09-23T15:23:26.377Z,16.70
2018-09-23T15:25:54.840Z,16.40
2018-09-23T15:28:23.278Z,16.20
2018-09-23T15:30:51.729Z,15.90
2018-09-23T15:33:20.209Z,15.60
2018-09-23T15:35:48.724Z,15.50
2018-09-23T15:38:17.121Z,15.40
2018-09-23T15:40:45.551Z,15.30
2018-09-23T15:43:13.989Z,15.20
2018-09-23T15:45:42.418Z,15.10
2018-09-23T15:48:10.868Z,15.10
2018-09-23T15:50:39.454Z,15.00
2018-09-23T15:53:08.000Z,15.00
2018-09-23T15:55:36.411Z,14.90
2018-09-23T15:58:04.909Z,14.90
2018-09-23T16:00:33.345Z,14.80
2018-09-23T16:03:01.830Z,14.80
2018-09-23T16:05:30.285Z,14.80
2018-09-23T16:07:58.694Z,14.80
2018-09-23T16:10:27.108Z,14.80
2018-09-23T16:12:55.551Z,14.80
2018-09-23T16:15:23.997Z,14.80
2018-09-23T16:17:52.413Z,14.90
2018-09-23T16:20:20.800Z,14.80
2018-09-23T16:22:49.224Z,14.80
2018-09-23T16:25:17.617Z,14.90
2018-09-23T16:27:46.050Z,14.90
2018-09-23T16:30:14.451Z,14.90
2018-09-23T16:32:42.898Z,14.90
2018-09-23T16:35:11.303Z,14.80
2018-09-23T16:37:39.809Z,14.80
2018-09-23T16:40:08.857Z,14.60
2018-09-23T16:42:37.288Z,14.40
2018-09-23T16:45:05.718Z,14.30
2018-09-23T16:47:34.184Z,14.10
2018-09-23T16:50:02.578Z,14.00
2018-09-23T16:52:31.043Z,13.90
2018-09-23T16:54:59.513Z,13.80
2018-09-23T16:57:27.863Z,13.70
2018-09-23T16:59:56.284Z,13.60
2018-09-23T17:02:24.703Z,13.60
2018-09-23T17:04:53.116Z,13.50
2018-09-23T17:07:21.532Z,13.40
2018-09-23T17:09:49.963Z,13.20
2018-09-23T17:12:18.376Z,13.10
2018-09-23T17:14:46.882Z,13.00
2018-09-23T17:17:15.293Z,13.00
2018-09-23T17:19:43.716Z,12.90
2018-09-23T17:22:12.153Z,12.90
2018-09-23T17:24:40.777Z,12.90
2018-09-23T17:27:09.191Z,12.90
2018-09-23T17:29:37.620Z,12.80
2018-09-23T17:32:06.061Z,12.80
2018-09-23T17:34:34.488Z,12.70
2018-09-23T17:37:03.051Z,12.70
2018-09-23T17:39:31.485Z,12.70
2018-09-23T17:41:59.933Z,12.60
2018-09-23T17:44:28.359Z,12.60
2018-09-23T17:46:56.848Z,12.50
2018-09-23T17:49:25.269Z,12.50
2018-09-23T17:51:53.672Z,12.50
2018-09-23T17:54:22.076Z,12.50
2018-09-23T17:56:50.499Z,12.50
2018-09-23T17:59:18.899Z,12.40
2018-09-23T18:01:47.356Z,12.40
2018-09-23T18:04:15.790Z,12.30
2018-09-23T18:06:44.281Z,12.30
2018-09-23T18:09:12.696Z,12.30
2018-09-23T18:11:41.176Z,12.20
2018-09-23T18:14:09.605Z,12.20
2018-09-23T18:16:38.025Z,12.10
2018-09-23T18:19:06.457Z,12.00
2018-09-23T18:21:34.906Z,11.90
2018-09-23T18:24:03.379Z,11.90
2018-09-23T18:26:31.794Z,11.90
2018-09-23T18:29:00.224Z,11.90
2018-09-23T18:31:28.661Z,11.80
2018-09-23T18:33:57.068Z,11.80
2018-09-23T18:36:25.496Z,11.70
2018-09-23T18:38:53.919Z,11.70
2018-09-23T18:41:22.370Z,11.70
2018-09-23T18:43:50.836Z,11.70
2018-09-23T18:46:19.325Z,11.60
2018-09-23T18:48:47.773Z,11.50
2018-09-23T18:51:16.207Z,11.40
2018-09-23T18:53:50.180Z,11.40
2018-09-23T18:56:18.636Z,11.40
2018-09-23T18:58:47.274Z,11.30
2018-09-23T19:01:15.700Z,11.30
2018-09-23T19:03:44.183Z,11.20
2018-09-23T19:06:12.589Z,11.30
2018-09-23T19:08:40.999Z,11.30
2018-09-23T19:11:09.408Z,11.20
2018-09-23T19:13:43.038Z,11.20
2018-09-23T19:16:16.703Z,11.20
2018-09-23T19:18:45.132Z,11.10
2018-09-23T19:21:13.547Z,11.10
2018-09-23T19:23:41.963Z,11.00
2018-09-23T19:26:10.371Z,10.90
2018-09-23T19:28:38.834Z,10.80
2018-09-23T19:31:07.241Z,10.70
2018-09-23T19:33:35.669Z,10.60
2018-09-23T19:36:04.063Z,10.50
2018-09-23T19:38:32.784Z,10.50
2018-09-23T19:41:01.167Z,10.40
2018-09-23T19:43:29.604Z,10.40
2018-09-23T19:45:58.061Z,10.40
2018-09-23T19:48:26.484Z,10.50
2018-09-23T19:50:55.008Z,10.50
2018-09-23T19:53:23.434Z,10.50
2018-09-23T19:55:51.986Z,10.50
2018-09-23T19:58:21.297Z,10.50
2018-09-23T20:00:49.709Z,10.50
2018-09-23T20:03:18.188Z,10.40
2018-09-23T20:05:46.687Z,10.40
2018-09-23T20:08:15.108Z,10.30
2018-09-23T20:10:43.565Z,10.30
2018-09-23T20:13:12.002Z,10.20
2018-09-23T20:15:40.466Z,10.10
2018-09-23T20:18:08.895Z,10.00
2018-09-23T20:20:38.073Z,10.00
2018-09-23T20:23:06.537Z,10.00
2018-09-23T20:25:35.008Z,9.90
2018-09-23T20:28:03.452Z,9.90
2018-09-23T20:30:31.908Z,9.70
2018-09-23T20:33:00.331Z,9.60
2018-09-23T20:35:28.780Z,9.60
2018-09-23T20:37:57.193Z,9.60
2018-09-23T20:40:25.969Z,9.50
2018-09-23T20:42:54.365Z,9.40
2018-09-23T20:45:22.784Z,9.30
2018-09-23T20:47:51.225Z,9.20
2018-09-23T20:50:19.633Z,9.10
2018-09-23T20:52:48.089Z,9.10
2018-09-23T20:55:16.501Z,9.10
2018-09-23T20:57:44.929Z,9.10
2018-09-23T21:00:13.357Z,9.10
2018-09-23T21:02:42.105Z,9.20
2018-09-23T21:05:10.521Z,9.20
2018-09-23T21:07:38.948Z,9.20
2018-09-23T21:10:07.411Z,9.30
2018-09-23T21:12:35.861Z,9.20
2018-09-23T21:15:05.622Z,9.10
2018-09-23T21:17:34.008Z,9.10
2018-09-23T21:20:02.446Z,9.00
2018-09-23T21:22:30.875Z,9.00
2018-09-23T21:24:59.303Z,9.00
2018-09-23T21:27:27.710Z,8.90
2018-09-23T21:29:56.137Z,8.90
2018-09-23T21:32:24.729Z,9.00
2018-09-23T21:34:53.129Z,9.00
2018-09-23T21:37:21.542Z,9.00
2018-09-23T21:39:49.952Z,9.00
2018-09-23T21:42:18.379Z,9.10
2018-09-23T21:44:46.793Z,9.00
2018-09-23T21:47:15.193Z,9.10
2018-09-23T21:49:43.607Z,9.10
2018-09-23T21:52:12.024Z,9.10
2018-09-23T21:54:40.450Z,9.10
2018-09-23T21:57:08.924Z,9.00
2018-09-23T21:59:37.344Z,9.00
2018-09-23T22:02:05.775Z,9.10
2018-09-23T22:04:34.200Z,9.00
2018-09-23T22:07:02.612Z,9.10
2018-09-23T22:09:31.080Z,9.00
2018-09-23T22:11:59.508Z,8.90
2018-09-23T22:14:27.964Z,8.80
2018-09-23T22:16:56.392Z,8.80
2018-09-23T22:19:24.864Z,8.70
2018-09-23T22:21:53.325Z,8.60
2018-09-23T22:24:21.749Z,8.50
2018-09-23T22:26:50.174Z,8.50
2018-09-23T22:29:18.600Z,8.40
2018-09-23T22:31:47.009Z,8.30
2018-09-23T22:34:15.467Z,8.30
2018-09-23T22:36:43.879Z,8.20
2018-09-23T22:39:12.308Z,8.20
2018-09-23T22:41:40.712Z,8.10
2018-09-23T22:44:09.156Z,8.10
2018-09-23T22:46:37.665Z,8.10
2018-09-23T22:49:06.348Z,8.10
2018-09-23T22:51:34.776Z,8.10
2018-09-23T22:54:03.240Z,8.00
2018-09-23T22:56:31.658Z,8.00
2018-09-23T22:59:00.061Z,8.00
2018-09-23T23:01:28.507Z,8.00
2018-09-23T23:03:56.903Z,8.00
2018-09-23T23:06:25.325Z,8.00
2018-09-23T23:08:53.744Z,7.90
2018-09-23T23:11:22.197Z,7.90
2018-09-23T23:13:50.609Z,7.90
2018-09-23T23:16:19.043Z,7.90
2018-09-23T23:18:47.468Z,7.90
2018-09-23T23:21:15.888Z,8.00
2018-09-23T23:23:44.312Z,8.00
2018-09-23T23:26:12.781Z,8.00
2018-09-23T23:28:41.188Z,7.90
2018-09-23T23:31:09.591Z,7.90
2018-09-23T23:33:37.987Z,8.00
2018-09-23T23:36:06.464Z,8.00
2018-09-23T23:38:34.857Z,8.00
2018-09-23T23:41:03.259Z,8.00
2018-09-23T23:43:31.639Z,8.00
2018-09-23T23:46:00.008Z,8.00
2018-09-23T23:48:28.418Z,8.00
2018-09-23T23:50:56.817Z,8.00
2018-09-23T23:53:25.227Z,8.00
2018-09-23T23:55:53.608Z,8.00
2018-09-23T23:58:22.003Z,8.10
